sensor_id;sensor_type;location;lat;lon;timestamp;pressure;altitude;pressure_sealevel;temperature;humidity
23339;BME280;11841;49.368;20.962;2023-04-23T00:02:34;95540.81;;;5.09;76.59
23339;BME280;11841;49.368;20.962;2023-04-23T00:05:26;95536.78;;;5.07;76.51
23339;BME280;11841;49.368;20.962;2023-04-23T00:08:12;95543.84;;;5.06;76.54
23339;BME280;11841;49.368;20.962;2023-04-23T00:10:58;95536.16;;;5.05;76.77
23339;BME280;11841;49.368;20.962;2023-04-23T00:13:44;95531.28;;;5.02;77.28
23339;BME280;11841;49.368;20.962;2023-04-23T00:16:31;95541.16;;;5.00;77.11
23339;BME280;11841;49.368;20.962;2023-04-23T00:19:17;95543.97;;;4.98;77.48
23339;BME280;11841;49.368;20.962;2023-04-23T00:22:02;95544.59;;;5.00;77.97
23339;BME280;11841;49.368;20.962;2023-04-23T00:24:48;95552.72;;;5.05;77.71
23339;BME280;11841;49.368;20.962;2023-04-23T00:27:33;95536.97;;;5.05;77.84
23339;BME280;11841;49.368;20.962;2023-04-23T00:30:18;95539.03;;;5.10;78.10
23339;BME280;11841;49.368;20.962;2023-04-23T00:33:04;95541.28;;;5.13;78.49
23339;BME280;11841;49.368;20.962;2023-04-23T00:35:49;95541.91;;;5.15;79.07
23339;BME280;11841;49.368;20.962;2023-04-23T00:38:35;95535.84;;;5.14;79.10
23339;BME280;11841;49.368;20.962;2023-04-23T00:41:20;95542.72;;;5.15;78.93
23339;BME280;11841;49.368;20.962;2023-04-23T00:44:05;95538.28;;;5.16;79.11
23339;BME280;11841;49.368;20.962;2023-04-23T00:46:52;95528.75;;;5.15;79.18
23339;BME280;11841;49.368;20.962;2023-04-23T00:49:37;95527.97;;;5.14;79.31
23339;BME280;11841;49.368;20.962;2023-04-23T00:52:23;95528.13;;;5.13;79.60
23339;BME280;11841;49.368;20.962;2023-04-23T00:55:09;95530.94;;;5.11;79.22
23339;BME280;11841;49.368;20.962;2023-04-23T00:57:54;95524.91;;;5.11;79.30
23339;BME280;11841;49.368;20.962;2023-04-23T01:00:43;95528.69;;;5.08;79.45
23339;BME280;11841;49.368;20.962;2023-04-23T01:03:33;95529.91;;;5.06;79.24
23339;BME280;11841;49.368;20.962;2023-04-23T01:06:20;95533.06;;;5.01;79.10
23339;BME280;11841;49.368;20.962;2023-04-23T01:09:09;95535.25;;;4.97;78.92
23339;BME280;11841;49.368;20.962;2023-04-23T01:11:55;95532.38;;;4.92;79.13
23339;BME280;11841;49.368;20.962;2023-04-23T01:14:42;95527.50;;;4.89;79.13
23339;BME280;11841;49.368;20.962;2023-04-23T01:17:27;95527.88;;;4.86;78.98
23339;BME280;11841;49.368;20.962;2023-04-23T01:20:13;95523.00;;;4.83;78.62
23339;BME280;11841;49.368;20.962;2023-04-23T01:22:58;95528.00;;;4.78;78.61
23339;BME280;11841;49.368;20.962;2023-04-23T01:25:43;95519.84;;;4.73;78.44
23339;BME280;11841;49.368;20.962;2023-04-23T01:28:29;95526.47;;;4.69;78.63
23339;BME280;11841;49.368;20.962;2023-04-23T01:31:15;95529.81;;;4.63;78.39
23339;BME280;11841;49.368;20.962;2023-04-23T01:34:01;95523.34;;;4.59;78.64
23339;BME280;11841;49.368;20.962;2023-04-23T01:36:46;95522.88;;;4.56;78.57
23339;BME280;11841;49.368;20.962;2023-04-23T01:39:31;95523.06;;;4.54;78.75
23339;BME280;11841;49.368;20.962;2023-04-23T01:42:18;95522.63;;;4.51;78.78
23339;BME280;11841;49.368;20.962;2023-04-23T01:45:03;95521.53;;;4.45;78.95
23339;BME280;11841;49.368;20.962;2023-04-23T01:47:51;95522.09;;;4.41;79.15
23339;BME280;11841;49.368;20.962;2023-04-23T01:50:38;95518.19;;;4.37;78.94
23339;BME280;11841;49.368;20.962;2023-04-23T01:53:23;95528.50;;;4.38;78.54
23339;BME280;11841;49.368;20.962;2023-04-23T01:56:09;95523.28;;;4.38;78.36
23339;BME280;11841;49.368;20.962;2023-04-23T01:58:55;95522.03;;;4.34;78.41
23339;BME280;11841;49.368;20.962;2023-04-23T02:01:44;95520.75;;;4.30;78.44
23339;BME280;11841;49.368;20.962;2023-04-23T02:04:30;95521.75;;;4.29;78.42
23339;BME280;11841;49.368;20.962;2023-04-23T02:07:16;95529.97;;;4.26;78.82
23339;BME280;11841;49.368;20.962;2023-04-23T02:10:02;95523.28;;;4.24;78.26
23339;BME280;11841;49.368;20.962;2023-04-23T02:12:48;95530.34;;;4.23;79.08
23339;BME280;11841;49.368;20.962;2023-04-23T02:15:33;95536.41;;;4.24;78.31
23339;BME280;11841;49.368;20.962;2023-04-23T02:18:19;95527.63;;;4.17;78.87
23339;BME280;11841;49.368;20.962;2023-04-23T02:21:05;95529.81;;;4.13;78.25
23339;BME280;11841;49.368;20.962;2023-04-23T02:23:50;95534.59;;;4.10;78.58
23339;BME280;11841;49.368;20.962;2023-04-23T02:26:36;95537.78;;;4.05;78.19
23339;BME280;11841;49.368;20.962;2023-04-23T02:29:21;95532.06;;;4.02;78.93
23339;BME280;11841;49.368;20.962;2023-04-23T02:32:07;95540.59;;;4.04;78.82
23339;BME280;11841;49.368;20.962;2023-04-23T02:34:53;95534.69;;;4.02;79.07
23339;BME280;11841;49.368;20.962;2023-04-23T02:37:38;95532.72;;;4.04;78.43
23339;BME280;11841;49.368;20.962;2023-04-23T02:40:24;95534.88;;;4.00;78.71
23339;BME280;11841;49.368;20.962;2023-04-23T02:43:09;95531.25;;;4.01;79.01
23339;BME280;11841;49.368;20.962;2023-04-23T02:45:54;95531.25;;;4.01;79.24
23339;BME280;11841;49.368;20.962;2023-04-23T02:48:40;95529.63;;;4.00;79.24
23339;BME280;11841;49.368;20.962;2023-04-23T02:51:25;95529.63;;;4.00;78.75
23339;BME280;11841;49.368;20.962;2023-04-23T02:54:12;95529.97;;;3.97;78.73
23339;BME280;11841;49.368;20.962;2023-04-23T02:56:57;95535.41;;;3.96;78.97
23339;BME280;11841;49.368;20.962;2023-04-23T02:59:42;95541.66;;;3.95;78.62
23339;BME280;11841;49.368;20.962;2023-04-23T03:02:27;95533.16;;;3.93;79.23
23339;BME280;11841;49.368;20.962;2023-04-23T03:05:13;95536.31;;;3.88;79.37
23339;BME280;11841;49.368;20.962;2023-04-23T03:07:58;95529.78;;;3.84;79.78
23339;BME280;11841;49.368;20.962;2023-04-23T03:10:43;95529.97;;;3.83;79.04
23339;BME280;11841;49.368;20.962;2023-04-23T03:13:29;95526.53;;;3.82;79.07
23339;BME280;11841;49.368;20.962;2023-04-23T03:16:14;95528.53;;;3.80;79.67
23339;BME280;11841;49.368;20.962;2023-04-23T03:18:59;95523.00;;;3.75;79.86
23339;BME280;11841;49.368;20.962;2023-04-23T03:21:45;95525.97;;;3.72;79.58
23339;BME280;11841;49.368;20.962;2023-04-23T03:24:31;95530.59;;;3.70;79.71
23339;BME280;11841;49.368;20.962;2023-04-23T03:27:17;95528.97;;;3.69;79.21
23339;BME280;11841;49.368;20.962;2023-04-23T03:30:02;95518.31;;;3.70;79.51
23339;BME280;11841;49.368;20.962;2023-04-23T03:32:49;95539.91;;;3.72;79.58
23339;BME280;11841;49.368;20.962;2023-04-23T03:35:34;95536.47;;;3.72;79.64
23339;BME280;11841;49.368;20.962;2023-04-23T03:38:19;95523.91;;;3.67;79.88
23339;BME280;11841;49.368;20.962;2023-04-23T03:41:05;95537.56;;;3.63;80.61
23339;BME280;11841;49.368;20.962;2023-04-23T03:43:50;95529.75;;;3.55;80.27
23339;BME280;11841;49.368;20.962;2023-04-23T03:46:36;95532.91;;;3.50;80.92
23339;BME280;11841;49.368;20.962;2023-04-23T03:49:21;95534.06;;;3.48;81.24
23339;BME280;11841;49.368;20.962;2023-04-23T03:52:06;95537.06;;;3.45;81.70
23339;BME280;11841;49.368;20.962;2023-04-23T03:54:52;95532.56;;;3.53;81.20
23339;BME280;11841;49.368;20.962;2023-04-23T03:57:37;95540.25;;;3.55;81.18
23339;BME280;11841;49.368;20.962;2023-04-23T04:00:22;95543.13;;;3.60;80.97
23339;BME280;11841;49.368;20.962;2023-04-23T04:03:08;95534.28;;;3.61;80.27
23339;BME280;11841;49.368;20.962;2023-04-23T04:05:53;95544.59;;;3.62;80.99
23339;BME280;11841;49.368;20.962;2023-04-23T04:08:39;95549.47;;;3.65;80.49
23339;BME280;11841;49.368;20.962;2023-04-23T04:11:24;95552.94;;;3.66;80.56
23339;BME280;11841;49.368;20.962;2023-04-23T04:14:10;95541.53;;;3.59;81.69
23339;BME280;11841;49.368;20.962;2023-04-23T04:16:56;95539.53;;;3.61;81.00
23339;BME280;11841;49.368;20.962;2023-04-23T04:19:41;95544.78;;;3.61;81.69
23339;BME280;11841;49.368;20.962;2023-04-23T04:22:27;95536.75;;;3.62;82.25
23339;BME280;11841;49.368;20.962;2023-04-23T04:25:13;95549.38;;;3.59;82.92
23339;BME280;11841;49.368;20.962;2023-04-23T04:27:58;95546.03;;;3.65;82.92
23339;BME280;11841;49.368;20.962;2023-04-23T04:30:44;95541.63;;;3.65;83.33
23339;BME280;11841;49.368;20.962;2023-04-23T04:33:29;95540.63;;;3.66;83.66
23339;BME280;11841;49.368;20.962;2023-04-23T04:36:14;95546.25;;;3.78;83.48
23339;BME280;11841;49.368;20.962;2023-04-23T04:39:00;95545.53;;;3.84;82.94
23339;BME280;11841;49.368;20.962;2023-04-23T04:41:45;95542.53;;;3.87;83.28
23339;BME280;11841;49.368;20.962;2023-04-23T04:44:33;95542.47;;;3.95;83.41
23339;BME280;11841;49.368;20.962;2023-04-23T04:47:22;95551.22;;;4.02;83.67
23339;BME280;11841;49.368;20.962;2023-04-23T04:50:07;95541.84;;;4.08;83.66
23339;BME280;11841;49.368;20.962;2023-04-23T04:52:52;95541.31;;;4.12;83.35
23339;BME280;11841;49.368;20.962;2023-04-23T04:55:37;95546.97;;;4.16;83.56
23339;BME280;11841;49.368;20.962;2023-04-23T04:58:22;95544.81;;;4.19;84.29
23339;BME280;11841;49.368;20.962;2023-04-23T05:01:08;95543.28;;;4.25;84.12
23339;BME280;11841;49.368;20.962;2023-04-23T05:03:54;95547.19;;;4.29;83.88
23339;BME280;11841;49.368;20.962;2023-04-23T05:06:40;95546.63;;;4.33;83.69
23339;BME280;11841;49.368;20.962;2023-04-23T05:09:25;95547.91;;;4.37;83.58
23339;BME280;11841;49.368;20.962;2023-04-23T05:12:10;95546.38;;;4.43;83.71
23339;BME280;11841;49.368;20.962;2023-04-23T05:14:55;95548.44;;;4.47;84.02
23339;BME280;11841;49.368;20.962;2023-04-23T05:17:41;95540.38;;;4.49;84.05
23339;BME280;11841;49.368;20.962;2023-04-23T05:20:26;95544.41;;;4.51;84.56
23339;BME280;11841;49.368;20.962;2023-04-23T05:23:11;95547.69;;;4.53;84.66
23339;BME280;11841;49.368;20.962;2023-04-23T05:25:57;95548.31;;;4.55;84.59
23339;BME280;11841;49.368;20.962;2023-04-23T05:28:42;95545.31;;;4.58;84.57
23339;BME280;11841;49.368;20.962;2023-04-23T05:31:27;95546.59;;;4.62;84.70
23339;BME280;11841;49.368;20.962;2023-04-23T05:34:13;95541.34;;;4.62;85.22
23339;BME280;11841;49.368;20.962;2023-04-23T05:36:58;95542.75;;;4.65;85.06
23339;BME280;11841;49.368;20.962;2023-04-23T05:39:44;95544.03;;;4.69;85.60
23339;BME280;11841;49.368;20.962;2023-04-23T05:42:29;95540.84;;;4.73;86.18
23339;BME280;11841;49.368;20.962;2023-04-23T05:45:15;95538.94;;;4.82;86.11
23339;BME280;11841;49.368;20.962;2023-04-23T05:48:00;95536.84;;;4.92;85.41
23339;BME280;11841;49.368;20.962;2023-04-23T05:50:46;95535.69;;;5.01;85.35
23339;BME280;11841;49.368;20.962;2023-04-23T05:53:33;95548.56;;;5.11;85.77
23339;BME280;11841;49.368;20.962;2023-04-23T05:56:18;95535.28;;;5.19;85.40
23339;BME280;11841;49.368;20.962;2023-04-23T05:59:03;95541.63;;;5.24;86.64
23339;BME280;11841;49.368;20.962;2023-04-23T06:01:50;95540.84;;;5.30;88.10
23339;BME280;11841;49.368;20.962;2023-04-23T06:04:36;95537.72;;;5.41;88.01
23339;BME280;11841;49.368;20.962;2023-04-23T06:07:21;95539.00;;;5.52;88.02
23339;BME280;11841;49.368;20.962;2023-04-23T06:10:07;95537.50;;;5.64;87.40
23339;BME280;11841;49.368;20.962;2023-04-23T06:12:52;95538.78;;;5.74;86.91
23339;BME280;11841;49.368;20.962;2023-04-23T06:15:40;95539.31;;;5.84;87.59
23339;BME280;11841;49.368;20.962;2023-04-23T06:18:25;95533.34;;;5.97;87.64
23339;BME280;11841;49.368;20.962;2023-04-23T06:21:11;95533.41;;;6.10;87.83
23339;BME280;11841;49.368;20.962;2023-04-23T06:23:57;95534.72;;;6.27;88.09
23339;BME280;11841;49.368;20.962;2023-04-23T06:26:42;95534.38;;;6.43;87.73
23339;BME280;11841;49.368;20.962;2023-04-23T06:29:27;95528.81;;;6.59;87.04
23339;BME280;11841;49.368;20.962;2023-04-23T06:32:12;95530.47;;;6.73;86.97
23339;BME280;11841;49.368;20.962;2023-04-23T06:34:58;95534.19;;;6.92;86.52
23339;BME280;11841;49.368;20.962;2023-04-23T06:37:46;95525.91;;;7.08;86.25
23339;BME280;11841;49.368;20.962;2023-04-23T06:40:32;95526.97;;;7.26;86.02
23339;BME280;11841;49.368;20.962;2023-04-23T06:43:17;95521.53;;;7.48;85.19
23339;BME280;11841;49.368;20.962;2023-04-23T06:46:02;95520.94;;;7.65;85.23
23339;BME280;11841;49.368;20.962;2023-04-23T06:48:48;95516.44;;;7.85;84.76
23339;BME280;11841;49.368;20.962;2023-04-23T06:51:33;95516.63;;;8.03;83.51
23339;BME280;11841;49.368;20.962;2023-04-23T06:54:18;95517.81;;;8.20;82.98
23339;BME280;11841;49.368;20.962;2023-04-23T06:57:04;95512.09;;;8.43;81.49
23339;BME280;11841;49.368;20.962;2023-04-23T06:59:50;95517.50;;;8.68;80.42
23339;BME280;11841;49.368;20.962;2023-04-23T07:02:36;95511.69;;;8.90;79.53
23339;BME280;11841;49.368;20.962;2023-04-23T07:05:22;95511.63;;;9.03;78.33
23339;BME280;11841;49.368;20.962;2023-04-23T07:08:07;95506.84;;;9.18;78.00
23339;BME280;11841;49.368;20.962;2023-04-23T07:10:53;95508.13;;;9.40;76.71
23339;BME280;11841;49.368;20.962;2023-04-23T07:13:38;95505.59;;;9.58;75.97
23339;BME280;11841;49.368;20.962;2023-04-23T07:16:23;95504.81;;;9.76;75.91
23339;BME280;11841;49.368;20.962;2023-04-23T07:19:09;95499.53;;;10.01;75.28
23339;BME280;11841;49.368;20.962;2023-04-23T07:21:55;95501.00;;;10.21;74.23
23339;BME280;11841;49.368;20.962;2023-04-23T07:24:40;95505.41;;;10.27;73.74
23339;BME280;11841;49.368;20.962;2023-04-23T07:27:26;95500.41;;;10.37;73.49
23339;BME280;11841;49.368;20.962;2023-04-23T07:30:12;95497.09;;;10.60;71.77
23339;BME280;11841;49.368;20.962;2023-04-23T07:32:57;95494.28;;;10.73;70.33
23339;BME280;11841;49.368;20.962;2023-04-23T07:35:42;95485.13;;;10.87;69.42
23339;BME280;11841;49.368;20.962;2023-04-23T07:38:27;95487.59;;;11.18;68.15
23339;BME280;11841;49.368;20.962;2023-04-23T07:41:13;95487.16;;;11.33;67.50
23339;BME280;11841;49.368;20.962;2023-04-23T07:43:58;95484.97;;;11.30;68.54
23339;BME280;11841;49.368;20.962;2023-04-23T07:46:43;95486.34;;;11.32;68.27
23339;BME280;11841;49.368;20.962;2023-04-23T07:49:29;95477.97;;;11.47;67.17
23339;BME280;11841;49.368;20.962;2023-04-23T07:52:15;95483.00;;;11.66;67.72
23339;BME280;11841;49.368;20.962;2023-04-23T07:55:01;95475.97;;;11.83;66.88
23339;BME280;11841;49.368;20.962;2023-04-23T07:57:47;95465.69;;;12.10;65.97
23339;BME280;11841;49.368;20.962;2023-04-23T08:00:32;95465.66;;;12.45;63.97
23339;BME280;11841;49.368;20.962;2023-04-23T08:03:18;95470.91;;;12.79;61.68
23339;BME280;11841;49.368;20.962;2023-04-23T08:06:04;95480.00;;;13.06;60.67
23339;BME280;11841;49.368;20.962;2023-04-23T08:08:49;95474.13;;;13.21;60.96
23339;BME280;11841;49.368;20.962;2023-04-23T08:11:35;95469.09;;;13.36;59.82
23339;BME280;11841;49.368;20.962;2023-04-23T08:14:20;95465.47;;;13.42;60.24
23339;BME280;11841;49.368;20.962;2023-04-23T08:17:05;95470.00;;;13.58;59.81
23339;BME280;11841;49.368;20.962;2023-04-23T08:19:51;95471.47;;;13.82;58.75
23339;BME280;11841;49.368;20.962;2023-04-23T08:22:36;95468.47;;;14.12;57.16
23339;BME280;11841;49.368;20.962;2023-04-23T08:25:21;95467.25;;;14.19;57.62
23339;BME280;11841;49.368;20.962;2023-04-23T08:28:07;95464.50;;;14.14;57.20
23339;BME280;11841;49.368;20.962;2023-04-23T08:30:52;95476.16;;;14.08;56.86
23339;BME280;11841;49.368;20.962;2023-04-23T08:33:37;95468.56;;;14.00;56.69
23339;BME280;11841;49.368;20.962;2023-04-23T08:36:22;95470.19;;;14.01;56.29
23339;BME280;11841;49.368;20.962;2023-04-23T08:39:08;95467.53;;;14.01;54.71
23339;BME280;11841;49.368;20.962;2023-04-23T08:41:54;95462.72;;;14.03;54.56
23339;BME280;11841;49.368;20.962;2023-04-23T08:44:40;95457.56;;;13.97;56.13
23339;BME280;11841;49.368;20.962;2023-04-23T08:47:28;95452.06;;;14.20;55.60
23339;BME280;11841;49.368;20.962;2023-04-23T08:50:16;95449.09;;;14.54;53.42
23339;BME280;11841;49.368;20.962;2023-04-23T08:53:03;95448.75;;;14.68;51.93
23339;BME280;11841;49.368;20.962;2023-04-23T08:55:50;95446.69;;;14.75;51.63
23339;BME280;11841;49.368;20.962;2023-04-23T08:58:36;95445.31;;;14.72;50.34
23339;BME280;11841;49.368;20.962;2023-04-23T09:01:21;95439.03;;;14.83;48.69
23339;BME280;11841;49.368;20.962;2023-04-23T09:04:06;95436.47;;;15.15;47.59
23339;BME280;11841;49.368;20.962;2023-04-23T09:06:54;95429.88;;;15.22;48.07
23339;BME280;11841;49.368;20.962;2023-04-23T09:09:39;95427.41;;;15.16;47.25
23339;BME280;11841;49.368;20.962;2023-04-23T09:12:26;95427.09;;;15.12;47.26
23339;BME280;11841;49.368;20.962;2023-04-23T09:15:11;95422.31;;;15.14;47.43
23339;BME280;11841;49.368;20.962;2023-04-23T09:17:58;95424.16;;;15.14;47.56
23339;BME280;11841;49.368;20.962;2023-04-23T09:20:44;95418.78;;;15.09;47.90
23339;BME280;11841;49.368;20.962;2023-04-23T09:23:30;95423.34;;;15.08;47.96
23339;BME280;11841;49.368;20.962;2023-04-23T09:26:18;95416.06;;;15.04;48.24
23339;BME280;11841;49.368;20.962;2023-04-23T09:29:12;95420.34;;;15.05;45.82
23339;BME280;11841;49.368;20.962;2023-04-23T09:32:06;95408.09;;;15.09;46.79
23339;BME280;11841;49.368;20.962;2023-04-23T09:34:55;95414.25;;;15.09;47.86
23339;BME280;11841;49.368;20.962;2023-04-23T09:37:42;95417.69;;;15.05;49.40
23339;BME280;11841;49.368;20.962;2023-04-23T09:40:27;95407.78;;;15.05;49.66
23339;BME280;11841;49.368;20.962;2023-04-23T09:43:13;95413.94;;;15.06;49.19
23339;BME280;11841;49.368;20.962;2023-04-23T09:45:58;95415.38;;;15.13;48.88
23339;BME280;11841;49.368;20.962;2023-04-23T09:48:43;95409.78;;;15.15;50.20
23339;BME280;11841;49.368;20.962;2023-04-23T09:51:29;95409.91;;;15.30;51.87
23339;BME280;11841;49.368;20.962;2023-04-23T09:54:16;95400.97;;;15.41;50.47
23339;BME280;11841;49.368;20.962;2023-04-23T09:57:05;95387.66;;;15.46;46.76
23339;BME280;11841;49.368;20.962;2023-04-23T09:59:56;95396.44;;;15.78;47.37
23339;BME280;11841;49.368;20.962;2023-04-23T10:02:58;95398.28;;;16.09;46.31
23339;BME280;11841;49.368;20.962;2023-04-23T10:05:44;95392.47;;;16.22;45.65
23339;BME280;11841;49.368;20.962;2023-04-23T10:08:45;95395.28;;;16.42;44.89
23339;BME280;11841;49.368;20.962;2023-04-23T10:11:31;95380.38;;;16.61;45.59
23339;BME280;11841;49.368;20.962;2023-04-23T10:14:17;95387.09;;;16.64;45.00
23339;BME280;11841;49.368;20.962;2023-04-23T10:17:03;95379.88;;;16.64;44.45
23339;BME280;11841;49.368;20.962;2023-04-23T10:19:50;95381.47;;;16.65;43.37
23339;BME280;11841;49.368;20.962;2023-04-23T10:22:37;95384.94;;;16.61;43.51
23339;BME280;11841;49.368;20.962;2023-04-23T10:25:23;95382.00;;;16.57;44.09
23339;BME280;11841;49.368;20.962;2023-04-23T10:28:09;95375.56;;;16.58;42.82
23339;BME280;11841;49.368;20.962;2023-04-23T10:30:56;95370.78;;;16.65;43.18
23339;BME280;11841;49.368;20.962;2023-04-23T10:33:42;95375.34;;;16.75;42.33
23339;BME280;11841;49.368;20.962;2023-04-23T10:36:43;95367.59;;;16.83;42.27
23339;BME280;11841;49.368;20.962;2023-04-23T10:39:32;95367.63;;;16.88;42.35
23339;BME280;11841;49.368;20.962;2023-04-23T10:42:18;95370.38;;;17.04;42.91
23339;BME280;11841;49.368;20.962;2023-04-23T10:45:15;95357.78;;;17.24;41.14
23339;BME280;11841;49.368;20.962;2023-04-23T10:48:09;95355.13;;;17.39;41.61
23339;BME280;11841;49.368;20.962;2023-04-23T10:50:58;95349.53;;;17.56;43.11
23339;BME280;11841;49.368;20.962;2023-04-23T10:54:04;95347.38;;;17.73;41.71
23339;BME280;11841;49.368;20.962;2023-04-23T10:56:57;95351.66;;;17.84;41.85
23339;BME280;11841;49.368;20.962;2023-04-23T10:59:53;95357.53;;;17.91;40.30
23339;BME280;11841;49.368;20.962;2023-04-23T11:02:43;95353.78;;;17.92;42.05
23339;BME280;11841;49.368;20.962;2023-04-23T11:05:34;95342.53;;;17.95;41.29
23339;BME280;11841;49.368;20.962;2023-04-23T11:08:19;95339.84;;;18.00;41.27
23339;BME280;11841;49.368;20.962;2023-04-23T11:11:08;95338.75;;;18.06;40.67
23339;BME280;11841;49.368;20.962;2023-04-23T11:13:53;95348.91;;;18.14;40.24
23339;BME280;11841;49.368;20.962;2023-04-23T11:16:39;95338.72;;;18.16;40.47
23339;BME280;11841;49.368;20.962;2023-04-23T11:19:24;95341.41;;;18.16;41.32
23339;BME280;11841;49.368;20.962;2023-04-23T11:22:14;95345.13;;;18.25;42.67
23339;BME280;11841;49.368;20.962;2023-04-23T11:25:08;95341.88;;;18.33;41.03
23339;BME280;11841;49.368;20.962;2023-04-23T11:27:55;95336.25;;;18.35;40.00
23339;BME280;11841;49.368;20.962;2023-04-23T11:30:42;95322.31;;;18.43;40.05
23339;BME280;11841;49.368;20.962;2023-04-23T11:33:28;95335.44;;;18.44;39.15
23339;BME280;11841;49.368;20.962;2023-04-23T11:36:13;95337.28;;;18.54;40.02
23339;BME280;11841;49.368;20.962;2023-04-23T11:38:59;95338.03;;;18.64;40.79
23339;BME280;11841;49.368;20.962;2023-04-23T11:41:47;95325.88;;;18.77;40.81
23339;BME280;11841;49.368;20.962;2023-04-23T11:44:37;95310.59;;;18.72;38.40
23339;BME280;11841;49.368;20.962;2023-04-23T11:47:24;95321.41;;;18.62;40.59
23339;BME280;11841;49.368;20.962;2023-04-23T11:50:22;95322.25;;;18.58;40.27
23339;BME280;11841;49.368;20.962;2023-04-23T11:53:10;95319.03;;;18.51;41.87
23339;BME280;11841;49.368;20.962;2023-04-23T11:55:55;95313.34;;;18.62;42.98
23339;BME280;11841;49.368;20.962;2023-04-23T11:58:40;95320.25;;;18.78;41.53
23339;BME280;11841;49.368;20.962;2023-04-23T12:01:25;95312.91;;;18.94;42.87
23339;BME280;11841;49.368;20.962;2023-04-23T12:04:12;95311.81;;;19.00;41.29
23339;BME280;11841;49.368;20.962;2023-04-23T12:06:58;95304.97;;;19.12;41.43
23339;BME280;11841;49.368;20.962;2023-04-23T12:09:44;95307.16;;;19.10;40.45
23339;BME280;11841;49.368;20.962;2023-04-23T12:12:34;95297.56;;;18.99;42.07
23339;BME280;11841;49.368;20.962;2023-04-23T12:15:19;95303.03;;;18.84;40.12
23339;BME280;11841;49.368;20.962;2023-04-23T12:18:08;95300.13;;;18.76;42.18
23339;BME280;11841;49.368;20.962;2023-04-23T12:20:56;95301.44;;;18.83;42.87
23339;BME280;11841;49.368;20.962;2023-04-23T12:23:50;95294.16;;;18.84;42.81
23339;BME280;11841;49.368;20.962;2023-04-23T12:26:35;95297.41;;;18.81;42.92
23339;BME280;11841;49.368;20.962;2023-04-23T12:29:24;95297.72;;;18.74;42.65
23339;BME280;11841;49.368;20.962;2023-04-23T12:32:10;95291.59;;;18.64;41.79
23339;BME280;11841;49.368;20.962;2023-04-23T12:34:56;95290.03;;;18.58;41.51
23339;BME280;11841;49.368;20.962;2023-04-23T12:37:42;95284.44;;;18.49;40.56
23339;BME280;11841;49.368;20.962;2023-04-23T12:40:27;95284.69;;;18.53;41.50
23339;BME280;11841;49.368;20.962;2023-04-23T12:43:12;95277.63;;;18.62;41.47
23339;BME280;11841;49.368;20.962;2023-04-23T12:45:58;95274.91;;;18.67;42.47
23339;BME280;11841;49.368;20.962;2023-04-23T12:48:43;95273.53;;;18.74;40.58
23339;BME280;11841;49.368;20.962;2023-04-23T12:51:28;95271.34;;;18.81;40.13
23339;BME280;11841;49.368;20.962;2023-04-23T12:54:14;95267.34;;;18.79;41.27
23339;BME280;11841;49.368;20.962;2023-04-23T12:56:59;95271.34;;;18.81;42.44
23339;BME280;11841;49.368;20.962;2023-04-23T12:59:48;95263.47;;;18.95;42.22
23339;BME280;11841;49.368;20.962;2023-04-23T13:02:33;95271.78;;;18.98;41.84
23339;BME280;11841;49.368;20.962;2023-04-23T13:05:18;95274.22;;;18.95;42.16
23339;BME280;11841;49.368;20.962;2023-04-23T13:08:04;95271.28;;;18.91;42.96
23339;BME280;11841;49.368;20.962;2023-04-23T13:10:49;95267.31;;;18.84;42.70
23339;BME280;11841;49.368;20.962;2023-04-23T13:13:34;95264.38;;;18.80;43.44
23339;BME280;11841;49.368;20.962;2023-04-23T13:16:20;95270.31;;;18.77;41.94
23339;BME280;11841;49.368;20.962;2023-04-23T13:19:05;95258.53;;;18.73;42.38
23339;BME280;11841;49.368;20.962;2023-04-23T13:21:51;95256.34;;;18.75;41.96
23339;BME280;11841;49.368;20.962;2023-04-23T13:24:36;95252.63;;;18.71;41.02
23339;BME280;11841;49.368;20.962;2023-04-23T13:27:23;95242.72;;;18.62;41.61
23339;BME280;11841;49.368;20.962;2023-04-23T13:30:09;95250.78;;;18.62;42.91
23339;BME280;11841;49.368;20.962;2023-04-23T13:32:54;95238.69;;;18.64;43.37
23339;BME280;11841;49.368;20.962;2023-04-23T13:35:42;95234.84;;;18.75;44.11
23339;BME280;11841;49.368;20.962;2023-04-23T13:38:27;95232.91;;;18.86;42.36
23339;BME280;11841;49.368;20.962;2023-04-23T13:41:13;95241.94;;;19.00;41.67
23339;BME280;11841;49.368;20.962;2023-04-23T13:43:58;95241.63;;;19.06;42.53
23339;BME280;11841;49.368;20.962;2023-04-23T13:46:44;95226.31;;;19.07;40.69
23339;BME280;11841;49.368;20.962;2023-04-23T13:49:29;95230.41;;;18.99;40.42
23339;BME280;11841;49.368;20.962;2023-04-23T13:52:14;95225.34;;;18.93;40.20
23339;BME280;11841;49.368;20.962;2023-04-23T13:55:00;95225.06;;;18.94;40.44
23339;BME280;11841;49.368;20.962;2023-04-23T13:57:48;95220.75;;;18.98;41.56
23339;BME280;11841;49.368;20.962;2023-04-23T14:00:33;95214.03;;;18.96;41.03
23339;BME280;11841;49.368;20.962;2023-04-23T14:03:18;95215.94;;;18.90;41.27
23339;BME280;11841;49.368;20.962;2023-04-23T14:06:07;95211.16;;;18.87;41.63
23339;BME280;11841;49.368;20.962;2023-04-23T14:08:52;95213.22;;;18.95;40.92
23339;BME280;11841;49.368;20.962;2023-04-23T14:11:38;95212.59;;;19.08;40.72
23339;BME280;11841;49.368;20.962;2023-04-23T14:14:24;95206.09;;;19.14;41.12
23339;BME280;11841;49.368;20.962;2023-04-23T14:17:09;95200.63;;;19.24;40.71
23339;BME280;11841;49.368;20.962;2023-04-23T14:19:55;95198.72;;;19.30;40.30
23339;BME280;11841;49.368;20.962;2023-04-23T14:22:41;95197.88;;;19.35;40.86
23339;BME280;11841;49.368;20.962;2023-04-23T14:25:35;95196.22;;;19.39;40.23
23339;BME280;11841;49.368;20.962;2023-04-23T14:28:39;95200.44;;;19.50;41.78
23339;BME280;11841;49.368;20.962;2023-04-23T14:31:29;95197.59;;;19.65;41.74
23339;BME280;11841;49.368;20.962;2023-04-23T14:34:17;95197.53;;;19.70;41.54
23339;BME280;11841;49.368;20.962;2023-04-23T14:37:03;95188.31;;;19.76;40.67